Terminal Aerodrome Forecast
Issued by NWS Wilmington, OH

Current Version | Previous Version | Graphics & Text | Print | Product List | Glossary On
Versions: 1 2 3 4 5 6 7 8 9 10 11 12 13 14 15 16 17 18 19 20 21 22 23 24 25 26 27 28 29
000
FTUS41 KILN 300852 AAA
TAFILN
TAF AMD
KILN 300852Z 3009/3106 00000KT 4SM BR SCT004
      TEMPO 3009/3013 2SM BR BKN002
     FM301300 24006KT P6SM FEW008 SCT050
     FM301700 24006KT P6SM VCTS SCT040CB BKN250
     FM310000 24002KT P6SM FEW040=

USA.gov is the U.S. government's official web portal to all federal, state and local government web resources and services.